createdAt,value
2023-08-31T00:02:02.979Z,99465.56
2023-08-31T00:05:06.229Z,99467.91
2023-08-31T00:08:09.128Z,99470.31
2023-08-31T00:11:11.808Z,99471.62
2023-08-31T00:14:14.245Z,99467.25
2023-08-31T00:17:17.012Z,99461.00
2023-08-31T00:20:20.054Z,99462.00
2023-08-31T00:23:23.049Z,99465.47
2023-08-31T00:26:25.856Z,99456.62
2023-08-31T00:29:28.910Z,99460.59
2023-08-31T00:32:31.300Z,99457.47
2023-08-31T00:35:35.350Z,99462.28
2023-08-31T00:38:37.964Z,99463.47
2023-08-31T00:41:40.753Z,99460.81
2023-08-31T00:44:43.238Z,99452.81
2023-08-31T00:47:48.873Z,99452.81
2023-08-31T00:50:52.224Z,99449.41
2023-08-31T00:53:56.465Z,99463.53
2023-08-31T00:56:59.080Z,99474.44
2023-08-31T01:00:01.752Z,99473.78
2023-08-31T01:03:14.531Z,99481.00
2023-08-31T01:06:42.287Z,99472.69
2023-08-31T01:09:49.311Z,99470.28
2023-08-31T01:12:56.474Z,99476.41
2023-08-31T01:16:04.786Z,99474.13
2023-08-31T01:19:23.321Z,99476.09
2023-08-31T01:22:28.515Z,99472.31
2023-08-31T01:25:33.593Z,99488.00
2023-08-31T01:28:36.089Z,99498.41
2023-08-31T01:31:46.354Z,99499.38
2023-08-31T01:34:51.694Z,99493.94
2023-08-31T01:38:05.994Z,99487.03
2023-08-31T01:41:12.645Z,99475.37
2023-08-31T01:44:18.064Z,99488.88
2023-08-31T01:47:21.227Z,99485.91
2023-08-31T01:50:24.279Z,99484.94
2023-08-31T01:53:27.214Z,99488.25
2023-08-31T01:56:30.077Z,99483.16
2023-08-31T01:59:32.605Z,99491.53
2023-08-31T02:02:36.537Z,99493.19
2023-08-31T02:05:39.332Z,99482.37
2023-08-31T02:08:41.821Z,99490.97
2023-08-31T02:11:46.010Z,99480.63
2023-08-31T02:14:48.697Z,99491.59
2023-08-31T02:17:51.592Z,99487.28
2023-08-31T02:20:54.604Z,99487.28
2023-08-31T02:23:57.290Z,99490.44
2023-08-31T02:26:59.990Z,99496.47
2023-08-31T02:30:04.275Z,99494.88
2023-08-31T02:33:07.112Z,99500.97
2023-08-31T02:36:09.706Z,99508.69
2023-08-31T02:39:12.450Z,99502.12
2023-08-31T02:42:17.900Z,99507.72
2023-08-31T02:45:21.908Z,99506.88
2023-08-31T02:48:24.456Z,99513.94
2023-08-31T02:51:27.306Z,99517.09
2023-08-31T02:54:29.751Z,99517.09
2023-08-31T02:57:32.559Z,99516.31
2023-08-31T03:00:35.281Z,99516.16
2023-08-31T03:03:42.438Z,99523.56
2023-08-31T03:06:44.888Z,99527.50
2023-08-31T03:09:50.920Z,99533.06
2023-08-31T03:12:53.390Z,99534.13
2023-08-31T03:15:57.649Z,99537.41
2023-08-31T03:19:00.358Z,99539.38
2023-08-31T03:22:03.204Z,99542.97
2023-08-31T03:25:05.910Z,99542.19
2023-08-31T03:28:09.443Z,99533.81
2023-08-31T03:31:11.926Z,99540.38
2023-08-31T03:34:14.655Z,99543.97
2023-08-31T03:37:17.533Z,99545.97
2023-08-31T03:40:20.442Z,99551.25
2023-08-31T03:43:23.016Z,99549.75
2023-08-31T03:46:27.892Z,99546.63
2023-08-31T03:49:31.403Z,99546.00
2023-08-31T03:52:34.194Z,99553.91
2023-08-31T03:55:38.137Z,99553.91
2023-08-31T03:58:40.848Z,99549.25
2023-08-31T04:01:43.681Z,99566.69
2023-08-31T04:04:47.475Z,99562.41
2023-08-31T04:07:50.213Z,99569.03
2023-08-31T04:10:53.044Z,99573.75
2023-08-31T04:13:57.077Z,99573.75
2023-08-31T04:16:59.958Z,99582.81
2023-08-31T04:20:02.684Z,99581.50
2023-08-31T04:23:05.414Z,99590.37
2023-08-31T04:26:12.936Z,99586.25
2023-08-31T04:29:15.595Z,99599.72
2023-08-31T04:32:18.079Z,99602.84
2023-08-31T04:35:20.958Z,99603.22
2023-08-31T04:38:23.466Z,99611.75
2023-08-31T04:41:26.227Z,99604.34
2023-08-31T04:44:28.578Z,99606.94
2023-08-31T04:47:31.314Z,99615.66
2023-08-31T04:50:33.723Z,99614.94
2023-08-31T04:53:36.356Z,99622.19
2023-08-31T04:56:38.770Z,99619.87
2023-08-31T04:59:41.576Z,99621.97
2023-08-31T05:02:44.822Z,99624.41
2023-08-31T05:05:47.844Z,99618.44
2023-08-31T05:08:50.327Z,99624.62
2023-08-31T05:11:53.045Z,99618.81
2023-08-31T05:14:55.498Z,99620.63
2023-08-31T05:17:58.854Z,99624.72
2023-08-31T05:21:01.389Z,99627.97
2023-08-31T05:24:04.467Z,99637.91
2023-08-31T05:27:06.889Z,99639.69
2023-08-31T05:30:10.355Z,99643.97
2023-08-31T05:33:13.037Z,99647.59
2023-08-31T05:36:15.893Z,99644.78
2023-08-31T05:39:18.236Z,99644.97
2023-08-31T05:42:20.967Z,99657.63
2023-08-31T05:45:24.325Z,99654.16
2023-08-31T05:48:27.242Z,99653.53
2023-08-31T05:51:29.694Z,99663.44
2023-08-31T05:54:32.509Z,99666.41
2023-08-31T05:57:34.890Z,99668.88
2023-08-31T06:00:37.498Z,99668.81
2023-08-31T06:03:40.177Z,99675.47
2023-08-31T06:06:42.613Z,99669.59
2023-08-31T06:09:45.376Z,99679.00
2023-08-31T06:12:47.921Z,99682.34
2023-08-31T06:15:50.891Z,99692.66
2023-08-31T06:18:53.335Z,99692.81
2023-08-31T06:21:55.998Z,99697.59
2023-08-31T06:24:58.381Z,99695.53
2023-08-31T06:28:01.094Z,99696.47
2023-08-31T06:31:03.743Z,99712.75
2023-08-31T06:34:06.564Z,99713.13
2023-08-31T06:37:09.090Z,99713.66
2023-08-31T06:40:12.185Z,99718.16
2023-08-31T06:43:15.016Z,99718.63
2023-08-31T06:46:24.907Z,99729.03
2023-08-31T06:49:28.756Z,99728.66
2023-08-31T06:52:32.917Z,99725.72
2023-08-31T06:55:35.533Z,99733.06
2023-08-31T06:58:38.290Z,99733.06
2023-08-31T07:01:40.855Z,99733.09
2023-08-31T07:04:44.515Z,99743.13
2023-08-31T07:07:46.944Z,99744.28
2023-08-31T07:10:53.189Z,99740.09
2023-08-31T07:13:55.795Z,99742.53
2023-08-31T07:16:58.522Z,99742.78
2023-08-31T07:20:00.932Z,99745.16
2023-08-31T07:23:04.053Z,99744.75
2023-08-31T07:26:06.705Z,99751.88
2023-08-31T07:29:10.063Z,99752.16
2023-08-31T07:32:12.649Z,99754.59
2023-08-31T07:35:15.772Z,99747.63
2023-08-31T07:38:18.153Z,99762.59
2023-08-31T07:41:20.870Z,99754.31
2023-08-31T07:44:23.371Z,99769.75
2023-08-31T07:47:26.222Z,99772.22
2023-08-31T07:50:28.742Z,99771.16
2023-08-31T07:53:31.460Z,99766.53
2023-08-31T07:56:33.839Z,99764.84
2023-08-31T07:59:36.456Z,99770.31
2023-08-31T08:02:38.942Z,99776.38
2023-08-31T08:05:42.699Z,99785.63
2023-08-31T08:08:45.416Z,99784.38
2023-08-31T08:11:48.516Z,99785.97
2023-08-31T08:14:51.020Z,99792.03
2023-08-31T08:17:55.059Z,99790.91
2023-08-31T08:20:57.555Z,99791.66
2023-08-31T08:24:00.358Z,99784.94
2023-08-31T08:27:02.813Z,99789.75
2023-08-31T08:30:06.236Z,99795.34
2023-08-31T08:33:10.499Z,99789.94
2023-08-31T08:36:13.880Z,99804.66
2023-08-31T08:39:16.388Z,99799.84
2023-08-31T08:42:20.274Z,99802.00
2023-08-31T08:45:26.948Z,99805.91
2023-08-31T08:48:29.901Z,99808.25
2023-08-31T08:51:32.863Z,99807.72
2023-08-31T08:54:39.417Z,99808.44
2023-08-31T08:57:42.971Z,99808.47
2023-08-31T09:00:47.885Z,99816.41
2023-08-31T09:03:51.151Z,99811.28
2023-08-31T09:06:54.191Z,99811.31
2023-08-31T09:09:56.640Z,99816.63
2023-08-31T09:13:01.631Z,99821.41
2023-08-31T09:16:04.250Z,99814.53
2023-08-31T09:19:22.777Z,99822.44
2023-08-31T09:22:25.206Z,99834.00
2023-08-31T09:25:27.914Z,99827.16
2023-08-31T09:28:33.162Z,99839.44
2023-08-31T09:31:36.044Z,99846.56
2023-08-31T09:34:39.448Z,99839.97
2023-08-31T09:37:42.335Z,99840.09
2023-08-31T09:40:46.623Z,99842.00
2023-08-31T09:43:50.343Z,99851.34
2023-08-31T09:46:53.966Z,99854.69
2023-08-31T09:49:57.512Z,99852.06
2023-08-31T09:53:08.327Z,99859.09
2023-08-31T09:56:14.673Z,99854.44
2023-08-31T09:59:17.849Z,99854.25
2023-08-31T10:02:20.761Z,99856.72
2023-08-31T10:05:26.100Z,99862.03
2023-08-31T10:08:32.561Z,99856.91
2023-08-31T10:11:36.519Z,99852.34
2023-08-31T10:14:39.149Z,99852.16
2023-08-31T10:17:41.945Z,99848.75
2023-08-31T10:20:45.456Z,99846.50
2023-08-31T10:23:49.181Z,99854.41
2023-08-31T10:26:51.623Z,99847.50
2023-08-31T10:29:54.419Z,99858.38
2023-08-31T10:33:20.806Z,99863.47
2023-08-31T10:36:23.540Z,99861.75
2023-08-31T10:39:38.072Z,99862.19
2023-08-31T10:42:45.403Z,99860.56
2023-08-31T10:45:47.926Z,99851.88
2023-08-31T10:48:53.896Z,99857.75
2023-08-31T10:51:58.625Z,99854.22
2023-08-31T10:55:06.293Z,99858.84
2023-08-31T10:58:12.074Z,99859.03
2023-08-31T11:01:14.838Z,99860.53
2023-08-31T11:04:17.414Z,99856.94
2023-08-31T11:07:24.297Z,99857.94
2023-08-31T11:10:30.770Z,99850.75
2023-08-31T11:13:33.714Z,99858.50
2023-08-31T11:16:39.583Z,99860.50
2023-08-31T11:19:42.470Z,99861.75
2023-08-31T11:22:47.785Z,99858.56
2023-08-31T11:25:51.506Z,99864.78
2023-08-31T11:28:57.396Z,99861.97
2023-08-31T11:32:03.496Z,99866.44
2023-08-31T11:35:08.220Z,99872.41
2023-08-31T11:38:10.981Z,99861.81
2023-08-31T11:41:13.514Z,99864.59
2023-08-31T11:44:18.210Z,99867.41
2023-08-31T11:47:21.801Z,99862.34
2023-08-31T11:50:25.693Z,99867.41
2023-08-31T11:53:28.673Z,99865.22
2023-08-31T11:56:44.638Z,99861.41
2023-08-31T11:59:47.413Z,99852.66
2023-08-31T12:03:00.161Z,99861.47
2023-08-31T12:06:04.748Z,99853.03
2023-08-31T12:09:10.809Z,99851.78
2023-08-31T12:12:22.820Z,99850.19
2023-08-31T12:15:32.018Z,99845.28
2023-08-31T12:18:38.601Z,99846.78
2023-08-31T12:21:43.063Z,99841.19
2023-08-31T12:24:45.757Z,99843.00
2023-08-31T12:27:48.164Z,99847.87
2023-08-31T12:30:57.683Z,99847.41
2023-08-31T12:34:01.746Z,99845.81
2023-08-31T12:37:05.885Z,99844.66
2023-08-31T12:40:11.008Z,99854.38
2023-08-31T12:43:14.175Z,99851.19
2023-08-31T12:46:18.093Z,99854.97
2023-08-31T12:49:21.553Z,99847.53
2023-08-31T12:52:25.209Z,99851.00
2023-08-31T12:55:27.992Z,99849.59
2023-08-31T12:58:30.455Z,99844.09
2023-08-31T13:01:34.453Z,99852.34
2023-08-31T13:04:38.044Z,99852.34
2023-08-31T13:07:41.621Z,99852.12
2023-08-31T13:10:44.548Z,99847.84
2023-08-31T13:13:47.267Z,99850.78
2023-08-31T13:16:49.742Z,99853.63
2023-08-31T13:19:52.568Z,99851.38
2023-08-31T13:22:55.053Z,99839.16
2023-08-31T13:25:57.795Z,99842.25
2023-08-31T13:29:00.232Z,99836.03
2023-08-31T13:32:03.578Z,99832.44
2023-08-31T13:35:08.972Z,99846.66
2023-08-31T13:38:11.928Z,99843.38
2023-08-31T13:41:14.753Z,99847.09
2023-08-31T13:44:17.592Z,99841.31
2023-08-31T13:47:20.013Z,99840.59
2023-08-31T13:50:22.863Z,99837.00
2023-08-31T13:53:25.813Z,99837.25
2023-08-31T13:56:28.457Z,99844.09
2023-08-31T13:59:30.787Z,99841.03
2023-08-31T14:02:33.556Z,99837.56
2023-08-31T14:05:36.335Z,99843.00
2023-08-31T14:08:38.816Z,99847.81
2023-08-31T14:11:41.848Z,99844.69
2023-08-31T14:14:47.178Z,99844.56
2023-08-31T14:17:54.554Z,99848.97
2023-08-31T14:20:59.170Z,99840.50
2023-08-31T14:24:01.917Z,99833.94
2023-08-31T14:27:05.084Z,99836.16
2023-08-31T14:30:08.361Z,99845.72
2023-08-31T14:33:10.894Z,99839.81
2023-08-31T14:36:15.846Z,99845.84
2023-08-31T14:39:19.377Z,99850.09
2023-08-31T14:42:22.556Z,99842.94
2023-08-31T14:45:25.027Z,99842.75
2023-08-31T14:48:31.720Z,99833.78
2023-08-31T14:51:34.367Z,99838.06
2023-08-31T14:54:37.363Z,99848.91
2023-08-31T14:57:43.283Z,99850.63
2023-08-31T15:00:46.759Z,99851.44
2023-08-31T15:03:49.167Z,99838.06
2023-08-31T15:06:54.834Z,99844.44
2023-08-31T15:09:57.269Z,99846.78
2023-08-31T15:13:00.030Z,99839.13
2023-08-31T15:16:02.830Z,99840.63
2023-08-31T15:19:05.597Z,99850.38
2023-08-31T15:22:08.087Z,99844.06
2023-08-31T15:25:11.010Z,99848.13
2023-08-31T15:28:13.795Z,99842.34
2023-08-31T15:31:17.432Z,99843.88
2023-08-31T15:34:19.956Z,99835.94
2023-08-31T15:37:22.583Z,99840.81
2023-08-31T15:40:25.143Z,99838.63
2023-08-31T15:43:32.903Z,99838.97
2023-08-31T15:46:35.363Z,99833.53
2023-08-31T15:49:38.213Z,99842.63
2023-08-31T15:52:40.713Z,99847.56
2023-08-31T15:55:47.676Z,99843.09
2023-08-31T15:58:50.022Z,99847.28
2023-08-31T16:01:52.755Z,99849.81
2023-08-31T16:04:55.463Z,99845.34
2023-08-31T16:07:57.823Z,99847.87
2023-08-31T16:11:04.698Z,99853.91
2023-08-31T16:14:07.228Z,99859.00
2023-08-31T16:17:09.942Z,99863.87
2023-08-31T16:20:12.647Z,99862.69
2023-08-31T16:23:15.380Z,99867.72
2023-08-31T16:26:17.740Z,99871.34
2023-08-31T16:29:20.394Z,99872.13
2023-08-31T16:32:22.910Z,99875.09
2023-08-31T16:35:25.661Z,99876.19
2023-08-31T16:38:28.270Z,99880.78
2023-08-31T16:41:32.588Z,99884.53
2023-08-31T16:44:35.129Z,99887.09
2023-08-31T16:47:38.661Z,99890.44
2023-08-31T16:50:41.115Z,99893.19
2023-08-31T16:53:43.969Z,99891.81
2023-08-31T16:56:49.274Z,99898.41
2023-08-31T16:59:52.092Z,99893.94
2023-08-31T17:02:54.671Z,99903.03
2023-08-31T17:05:57.866Z,99901.84
2023-08-31T17:09:00.474Z,99905.97
2023-08-31T17:12:03.663Z,99910.91
2023-08-31T17:15:07.650Z,99921.16
2023-08-31T17:18:10.471Z,99915.41
2023-08-31T17:21:13.027Z,99927.72
2023-08-31T17:24:15.673Z,99929.16
2023-08-31T17:27:20.581Z,99937.34
2023-08-31T17:30:23.399Z,99930.59
2023-08-31T17:33:29.408Z,99935.91
2023-08-31T17:36:32.185Z,99945.94
2023-08-31T17:39:34.562Z,99951.25
2023-08-31T17:42:38.177Z,99962.94
2023-08-31T17:45:40.582Z,99971.53
2023-08-31T17:48:45.862Z,99975.59
2023-08-31T17:51:50.476Z,99984.56
2023-08-31T17:54:53.299Z,99988.25
2023-08-31T17:57:56.111Z,99992.69
2023-08-31T18:00:58.891Z,99989.16
2023-08-31T18:04:02.059Z,100001.41
2023-08-31T18:07:06.380Z,100006.47
2023-08-31T18:10:09.835Z,100006.00
2023-08-31T18:13:12.274Z,100005.75
2023-08-31T18:16:15.129Z,100006.34
2023-08-31T18:19:18.077Z,100012.81
2023-08-31T18:22:20.819Z,100023.81
2023-08-31T18:25:23.214Z,100020.09
2023-08-31T18:28:25.878Z,100021.25
2023-08-31T18:31:28.375Z,100031.03
2023-08-31T18:34:31.477Z,100032.03
2023-08-31T18:37:34.173Z,100037.50
2023-08-31T18:40:37.134Z,100036.22
2023-08-31T18:43:39.729Z,100033.97
2023-08-31T18:46:42.855Z,100037.41
2023-08-31T18:49:45.378Z,100039.03
2023-08-31T18:52:49.971Z,100044.34
2023-08-31T18:55:56.980Z,100044.34
2023-08-31T18:58:59.659Z,100048.41
2023-08-31T19:02:04.235Z,100044.63
2023-08-31T19:05:08.090Z,100051.94
2023-08-31T19:08:10.694Z,100059.25
2023-08-31T19:11:14.498Z,100057.19
2023-08-31T19:14:16.936Z,100057.28
2023-08-31T19:17:19.614Z,100061.28
2023-08-31T19:20:21.973Z,100063.69
2023-08-31T19:23:24.685Z,100063.06
2023-08-31T19:26:27.083Z,100066.16
2023-08-31T19:29:29.815Z,100065.06
2023-08-31T19:32:32.315Z,100059.84
2023-08-31T19:38:40.404Z,100071.03
2023-08-31T19:41:43.032Z,100076.53
2023-08-31T19:44:46.345Z,100079.44
2023-08-31T19:47:49.248Z,100092.44
2023-08-31T19:50:53.244Z,100097.28
2023-08-31T19:53:56.228Z,100097.66
2023-08-31T19:56:58.712Z,100095.94
2023-08-31T20:00:01.683Z,100100.31
2023-08-31T20:03:04.428Z,100096.03
2023-08-31T20:06:07.657Z,100106.44
2023-08-31T20:09:11.443Z,100112.47
2023-08-31T20:12:14.215Z,100109.22
2023-08-31T20:15:16.858Z,100108.72
2023-08-31T20:18:19.744Z,100109.25
2023-08-31T20:21:23.484Z,100111.03
2023-08-31T20:24:26.145Z,100116.72
2023-08-31T20:27:28.506Z,100110.84
2023-08-31T20:30:31.434Z,100109.13
2023-08-31T20:33:33.875Z,100112.16
2023-08-31T20:36:36.744Z,100121.94
2023-08-31T20:39:40.507Z,100117.84
2023-08-31T20:42:43.661Z,100126.00
2023-08-31T20:45:46.116Z,100129.50
2023-08-31T20:48:48.875Z,100130.34
2023-08-31T20:51:51.364Z,100130.56
2023-08-31T20:54:56.086Z,100131.72
2023-08-31T20:57:58.544Z,100137.56
2023-08-31T21:01:08.978Z,100134.72
2023-08-31T21:04:11.650Z,100138.41
2023-08-31T21:07:14.696Z,100137.09
2023-08-31T21:10:17.277Z,100137.41
2023-08-31T21:13:20.076Z,100146.81
2023-08-31T21:16:23.339Z,100144.69
2023-08-31T21:19:26.762Z,100140.72
2023-08-31T21:22:29.942Z,100145.66
2023-08-31T21:25:33.428Z,100150.94
2023-08-31T21:28:36.237Z,100150.78
2023-08-31T21:31:39.279Z,100144.34
2023-08-31T21:34:42.416Z,100153.25
2023-08-31T21:37:45.240Z,100158.19
2023-08-31T21:40:50.547Z,100156.88
2023-08-31T21:43:53.286Z,100157.19
2023-08-31T21:46:55.654Z,100166.44
2023-08-31T21:49:58.398Z,100173.84
2023-08-31T21:53:01.140Z,100176.16
2023-08-31T21:56:05.591Z,100179.94
2023-08-31T21:59:08.127Z,100172.50
2023-08-31T22:02:10.975Z,100179.91
2023-08-31T22:05:15.323Z,100191.25
2023-08-31T22:08:17.997Z,100193.59
2023-08-31T22:11:21.943Z,100196.69
2023-08-31T22:14:24.889Z,100201.94
2023-08-31T22:17:27.809Z,100204.25
2023-08-31T22:20:33.294Z,100201.25
2023-08-31T22:23:36.312Z,100199.91
2023-08-31T22:26:38.942Z,100204.38
2023-08-31T22:29:41.814Z,100208.12
2023-08-31T22:32:44.544Z,100210.63
2023-08-31T22:35:47.722Z,100216.34
2023-08-31T22:38:50.173Z,100216.34
2023-08-31T22:41:52.908Z,100216.03
2023-08-31T22:44:55.548Z,100228.22
2023-08-31T22:47:58.338Z,100223.91
2023-08-31T22:51:02.173Z,100221.28
2023-08-31T22:54:05.077Z,100221.28
2023-08-31T22:57:07.829Z,100226.56
2023-08-31T23:00:12.725Z,100226.87
2023-08-31T23:03:16.844Z,100229.91
2023-08-31T23:06:19.625Z,100224.75
2023-08-31T23:09:22.517Z,100225.25
2023-08-31T23:12:25.264Z,100228.50
2023-08-31T23:15:27.729Z,100231.97
2023-08-31T23:18:30.487Z,100226.50
2023-08-31T23:21:42.228Z,100243.44
2023-08-31T23:24:46.196Z,100247.91
2023-08-31T23:27:48.534Z,100247.47
2023-08-31T23:30:51.267Z,100248.78
2023-08-31T23:33:53.968Z,100254.03
2023-08-31T23:36:57.061Z,100260.00
2023-08-31T23:39:59.648Z,100261.22
2023-08-31T23:43:02.903Z,100259.25
2023-08-31T23:46:05.357Z,100266.50
2023-08-31T23:49:08.193Z,100268.41
2023-08-31T23:52:11.761Z,100267.87
2023-08-31T23:55:14.700Z,100272.97
2023-08-31T23:58:17.233Z,100278.47
